sensor_id;sensor_type;location;lat;lon;timestamp;P1;durP1;ratioP1;P2;durP2;ratioP2
39880;SDS011;25554;44.954;10.068;2023-07-24T00:01:48;21.08;;;12.52;;
39880;SDS011;25554;44.954;10.068;2023-07-24T00:04:15;21.58;;;12.52;;
39880;SDS011;25554;44.954;10.068;2023-07-24T00:06:41;25.52;;;13.35;;
39880;SDS011;25554;44.954;10.068;2023-07-24T00:09:08;27.33;;;13.85;;
39880;SDS011;25554;44.954;10.068;2023-07-24T00:11:34;22.88;;;12.20;;
39880;SDS011;25554;44.954;10.068;2023-07-24T00:14:01;26.02;;;13.48;;
39880;SDS011;25554;44.954;10.068;2023-07-24T00:16:28;23.42;;;13.68;;
39880;SDS011;25554;44.954;10.068;2023-07-24T00:18:54;24.25;;;13.40;;
39880;SDS011;25554;44.954;10.068;2023-07-24T00:21:21;22.17;;;11.77;;
39880;SDS011;25554;44.954;10.068;2023-07-24T00:23:47;23.40;;;13.30;;
39880;SDS011;25554;44.954;10.068;2023-07-24T00:26:14;23.75;;;13.65;;
39880;SDS011;25554;44.954;10.068;2023-07-24T00:31:07;24.75;;;12.85;;
39880;SDS011;25554;44.954;10.068;2023-07-24T00:33:33;25.33;;;14.30;;
39880;SDS011;25554;44.954;10.068;2023-07-24T00:38:26;24.20;;;12.55;;
39880;SDS011;25554;44.954;10.068;2023-07-24T00:40:53;25.17;;;14.05;;
39880;SDS011;25554;44.954;10.068;2023-07-24T00:43:19;23.00;;;12.63;;
39880;SDS011;25554;44.954;10.068;2023-07-24T00:48:14;24.25;;;12.57;;
39880;SDS011;25554;44.954;10.068;2023-07-24T00:50:42;21.08;;;12.18;;
39880;SDS011;25554;44.954;10.068;2023-07-24T00:53:10;24.95;;;12.68;;
39880;SDS011;25554;44.954;10.068;2023-07-24T00:55:39;22.52;;;12.57;;
39880;SDS011;25554;44.954;10.068;2023-07-24T00:58:06;20.73;;;11.60;;
39880;SDS011;25554;44.954;10.068;2023-07-24T01:00:33;27.75;;;13.30;;
39880;SDS011;25554;44.954;10.068;2023-07-24T01:02:59;27.08;;;14.07;;
39880;SDS011;25554;44.954;10.068;2023-07-24T01:05:26;26.48;;;14.50;;
39880;SDS011;25554;44.954;10.068;2023-07-24T01:25:31;28.33;;;14.95;;
39880;SDS011;25554;44.954;10.068;2023-07-24T01:42:47;25.88;;;14.55;;
39880;SDS011;25554;44.954;10.068;2023-07-24T01:45:15;25.73;;;14.23;;
39880;SDS011;25554;44.954;10.068;2023-07-24T01:47:42;29.27;;;15.80;;
39880;SDS011;25554;44.954;10.068;2023-07-24T01:52:35;30.38;;;16.17;;
39880;SDS011;25554;44.954;10.068;2023-07-24T01:57:28;27.40;;;15.15;;
39880;SDS011;25554;44.954;10.068;2023-07-24T01:59:55;27.17;;;15.63;;
39880;SDS011;25554;44.954;10.068;2023-07-24T02:02:21;32.80;;;17.02;;
39880;SDS011;25554;44.954;10.068;2023-07-24T02:04:48;33.28;;;16.23;;
39880;SDS011;25554;44.954;10.068;2023-07-24T02:07:16;29.50;;;15.07;;
39880;SDS011;25554;44.954;10.068;2023-07-24T02:09:42;31.77;;;16.52;;
39880;SDS011;25554;44.954;10.068;2023-07-24T02:12:09;31.15;;;17.13;;
39880;SDS011;25554;44.954;10.068;2023-07-24T02:17:02;36.05;;;17.40;;
39880;SDS011;25554;44.954;10.068;2023-07-24T02:19:28;25.45;;;15.30;;
39880;SDS011;25554;44.954;10.068;2023-07-24T02:21:55;31.17;;;16.27;;
39880;SDS011;25554;44.954;10.068;2023-07-24T02:26:48;32.85;;;16.23;;
39880;SDS011;25554;44.954;10.068;2023-07-24T02:31:41;31.80;;;15.18;;
39880;SDS011;25554;44.954;10.068;2023-07-24T02:34:08;27.45;;;15.32;;
39880;SDS011;25554;44.954;10.068;2023-07-24T02:36:35;25.92;;;13.77;;
39880;SDS011;25554;44.954;10.068;2023-07-24T02:39:01;25.77;;;14.35;;
39880;SDS011;25554;44.954;10.068;2023-07-24T02:41:28;25.75;;;14.93;;
39880;SDS011;25554;44.954;10.068;2023-07-24T02:46:21;24.23;;;14.15;;
39880;SDS011;25554;44.954;10.068;2023-07-24T02:48:51;36.67;;;17.00;;
39880;SDS011;25554;44.954;10.068;2023-07-24T02:51:17;36.10;;;15.02;;
39880;SDS011;25554;44.954;10.068;2023-07-24T02:56:10;25.00;;;13.80;;
39880;SDS011;25554;44.954;10.068;2023-07-24T03:01:03;41.15;;;16.58;;
39880;SDS011;25554;44.954;10.068;2023-07-24T03:03:32;29.85;;;14.88;;
39880;SDS011;25554;44.954;10.068;2023-07-24T03:05:58;28.38;;;14.20;;
39880;SDS011;25554;44.954;10.068;2023-07-24T03:08:25;29.83;;;14.73;;
39880;SDS011;25554;44.954;10.068;2023-07-24T03:10:51;26.30;;;13.85;;
39880;SDS011;25554;44.954;10.068;2023-07-24T03:13:18;23.88;;;13.38;;
39880;SDS011;25554;44.954;10.068;2023-07-24T03:18:11;30.90;;;14.68;;
39880;SDS011;25554;44.954;10.068;2023-07-24T03:20:37;32.97;;;14.45;;
39880;SDS011;25554;44.954;10.068;2023-07-24T03:23:04;28.08;;;14.70;;
39880;SDS011;25554;44.954;10.068;2023-07-24T03:28:01;23.85;;;11.85;;
39880;SDS011;25554;44.954;10.068;2023-07-24T03:30:28;25.83;;;13.43;;
39880;SDS011;25554;44.954;10.068;2023-07-24T03:32:54;26.98;;;13.65;;
39880;SDS011;25554;44.954;10.068;2023-07-24T03:35:21;28.02;;;13.20;;
39880;SDS011;25554;44.954;10.068;2023-07-24T03:37:48;25.35;;;13.35;;
39880;SDS011;25554;44.954;10.068;2023-07-24T03:40:14;30.23;;;14.35;;
39880;SDS011;25554;44.954;10.068;2023-07-24T03:42:41;29.20;;;15.25;;
39880;SDS011;25554;44.954;10.068;2023-07-24T03:45:07;27.92;;;14.23;;
39880;SDS011;25554;44.954;10.068;2023-07-24T03:47:34;32.08;;;15.85;;
39880;SDS011;25554;44.954;10.068;2023-07-24T03:50:01;29.58;;;15.27;;
39880;SDS011;25554;44.954;10.068;2023-07-24T03:54:53;28.92;;;15.80;;
39880;SDS011;25554;44.954;10.068;2023-07-24T03:59:46;31.58;;;16.67;;
39880;SDS011;25554;44.954;10.068;2023-07-24T04:04:39;32.80;;;15.80;;
39880;SDS011;25554;44.954;10.068;2023-07-24T04:07:06;28.88;;;16.23;;
39880;SDS011;25554;44.954;10.068;2023-07-24T04:11:59;26.13;;;14.02;;
39880;SDS011;25554;44.954;10.068;2023-07-24T04:16:52;27.65;;;15.50;;
39880;SDS011;25554;44.954;10.068;2023-07-24T04:19:19;30.15;;;15.45;;
39880;SDS011;25554;44.954;10.068;2023-07-24T04:21:45;27.50;;;15.77;;
39880;SDS011;25554;44.954;10.068;2023-07-24T04:26:38;29.00;;;16.67;;
39880;SDS011;25554;44.954;10.068;2023-07-24T04:29:05;32.75;;;16.23;;
39880;SDS011;25554;44.954;10.068;2023-07-24T04:31:32;30.38;;;15.45;;
39880;SDS011;25554;44.954;10.068;2023-07-24T04:33:59;31.70;;;15.45;;
39880;SDS011;25554;44.954;10.068;2023-07-24T04:36:26;29.50;;;14.60;;
39880;SDS011;25554;44.954;10.068;2023-07-24T04:38:52;25.95;;;14.00;;
39880;SDS011;25554;44.954;10.068;2023-07-24T04:41:19;29.40;;;15.13;;
39880;SDS011;25554;44.954;10.068;2023-07-24T04:43:45;32.30;;;15.85;;
39880;SDS011;25554;44.954;10.068;2023-07-24T04:46:12;25.90;;;14.93;;
39880;SDS011;25554;44.954;10.068;2023-07-24T04:51:05;30.17;;;13.75;;
39880;SDS011;25554;44.954;10.068;2023-07-24T04:55:57;29.63;;;14.98;;
39880;SDS011;25554;44.954;10.068;2023-07-24T04:58:24;30.52;;;15.45;;
39880;SDS011;25554;44.954;10.068;2023-07-24T05:00:51;25.58;;;14.60;;
39880;SDS011;25554;44.954;10.068;2023-07-24T05:05:47;26.88;;;14.93;;
39880;SDS011;25554;44.954;10.068;2023-07-24T05:08:14;29.17;;;15.68;;
39880;SDS011;25554;44.954;10.068;2023-07-24T05:13:07;28.52;;;15.50;;
39880;SDS011;25554;44.954;10.068;2023-07-24T05:18:00;34.22;;;16.85;;
39880;SDS011;25554;44.954;10.068;2023-07-24T05:20:26;28.00;;;14.68;;
39880;SDS011;25554;44.954;10.068;2023-07-24T05:25:19;27.27;;;14.55;;
39880;SDS011;25554;44.954;10.068;2023-07-24T05:27:45;29.55;;;15.18;;
39880;SDS011;25554;44.954;10.068;2023-07-24T05:32:38;25.30;;;14.73;;
39880;SDS011;25554;44.954;10.068;2023-07-24T05:37:31;26.13;;;14.82;;
39880;SDS011;25554;44.954;10.068;2023-07-24T05:42:24;36.47;;;17.20;;
39880;SDS011;25554;44.954;10.068;2023-07-24T05:44:51;37.08;;;16.55;;
39880;SDS011;25554;44.954;10.068;2023-07-24T05:47:17;32.30;;;17.05;;
39880;SDS011;25554;44.954;10.068;2023-07-24T05:52:10;30.20;;;16.05;;
39880;SDS011;25554;44.954;10.068;2023-07-24T05:54:37;36.65;;;17.48;;
39880;SDS011;25554;44.954;10.068;2023-07-24T05:57:03;28.38;;;15.65;;
39880;SDS011;25554;44.954;10.068;2023-07-24T05:59:30;30.45;;;15.55;;
39880;SDS011;25554;44.954;10.068;2023-07-24T06:04:23;29.08;;;15.35;;
39880;SDS011;25554;44.954;10.068;2023-07-24T06:06:49;29.63;;;16.70;;
39880;SDS011;25554;44.954;10.068;2023-07-24T06:11:42;28.92;;;16.88;;
39880;SDS011;25554;44.954;10.068;2023-07-24T06:14:09;37.05;;;17.38;;
39880;SDS011;25554;44.954;10.068;2023-07-24T06:19:01;31.98;;;17.83;;
39880;SDS011;25554;44.954;10.068;2023-07-24T06:23:54;28.83;;;17.85;;
39880;SDS011;25554;44.954;10.068;2023-07-24T06:26:34;35.45;;;18.55;;
39880;SDS011;25554;44.954;10.068;2023-07-24T06:29:00;30.45;;;17.92;;
39880;SDS011;25554;44.954;10.068;2023-07-24T06:31:27;31.08;;;17.70;;
39880;SDS011;25554;44.954;10.068;2023-07-24T06:33:53;31.38;;;18.00;;
39880;SDS011;25554;44.954;10.068;2023-07-24T06:36:20;31.23;;;18.05;;
39880;SDS011;25554;44.954;10.068;2023-07-24T06:38:47;28.63;;;16.27;;
39880;SDS011;25554;44.954;10.068;2023-07-24T06:41:16;28.88;;;17.85;;
39880;SDS011;25554;44.954;10.068;2023-07-24T06:43:45;26.55;;;16.02;;
39880;SDS011;25554;44.954;10.068;2023-07-24T06:46:12;32.17;;;15.27;;
39880;SDS011;25554;44.954;10.068;2023-07-24T06:51:05;23.75;;;14.68;;
39880;SDS011;25554;44.954;10.068;2023-07-24T06:53:31;25.50;;;15.02;;
39880;SDS011;25554;44.954;10.068;2023-07-24T06:58:24;28.17;;;14.38;;
39880;SDS011;25554;44.954;10.068;2023-07-24T07:00:50;23.20;;;14.10;;
39880;SDS011;25554;44.954;10.068;2023-07-24T07:03:17;31.13;;;16.55;;
39880;SDS011;25554;44.954;10.068;2023-07-24T07:05:43;27.30;;;14.80;;
39880;SDS011;25554;44.954;10.068;2023-07-24T07:08:10;29.02;;;16.05;;
39880;SDS011;25554;44.954;10.068;2023-07-24T07:10:36;31.75;;;15.60;;
39880;SDS011;25554;44.954;10.068;2023-07-24T07:13:03;29.98;;;16.15;;
39880;SDS011;25554;44.954;10.068;2023-07-24T07:15:29;24.50;;;15.55;;
39880;SDS011;25554;44.954;10.068;2023-07-24T07:17:56;29.33;;;16.55;;
39880;SDS011;25554;44.954;10.068;2023-07-24T07:20:23;23.65;;;15.82;;
39880;SDS011;25554;44.954;10.068;2023-07-24T07:22:49;27.10;;;15.30;;
39880;SDS011;25554;44.954;10.068;2023-07-24T07:25:16;22.50;;;14.27;;
39880;SDS011;25554;44.954;10.068;2023-07-24T07:27:43;26.48;;;15.18;;
39880;SDS011;25554;44.954;10.068;2023-07-24T07:30:09;22.20;;;13.27;;
39880;SDS011;25554;44.954;10.068;2023-07-24T07:32:36;28.02;;;16.10;;
39880;SDS011;25554;44.954;10.068;2023-07-24T07:35:02;31.08;;;15.10;;
39880;SDS011;25554;44.954;10.068;2023-07-24T07:37:29;27.02;;;15.30;;
39880;SDS011;25554;44.954;10.068;2023-07-24T07:39:56;27.40;;;16.65;;
39880;SDS011;25554;44.954;10.068;2023-07-24T07:42:22;25.88;;;15.25;;
39880;SDS011;25554;44.954;10.068;2023-07-24T07:44:49;28.10;;;16.52;;
39880;SDS011;25554;44.954;10.068;2023-07-24T07:47:15;29.65;;;17.13;;
39880;SDS011;25554;44.954;10.068;2023-07-24T07:49:42;32.22;;;17.65;;
39880;SDS011;25554;44.954;10.068;2023-07-24T07:52:08;32.25;;;17.08;;
39880;SDS011;25554;44.954;10.068;2023-07-24T07:54:35;30.83;;;17.42;;
39880;SDS011;25554;44.954;10.068;2023-07-24T07:57:02;32.03;;;17.77;;
39880;SDS011;25554;44.954;10.068;2023-07-24T07:59:29;28.90;;;16.33;;
39880;SDS011;25554;44.954;10.068;2023-07-24T08:01:56;36.83;;;19.98;;
39880;SDS011;25554;44.954;10.068;2023-07-24T08:04:23;28.98;;;18.63;;
39880;SDS011;25554;44.954;10.068;2023-07-24T08:06:49;30.50;;;19.25;;
39880;SDS011;25554;44.954;10.068;2023-07-24T08:09:16;29.02;;;18.45;;
39880;SDS011;25554;44.954;10.068;2023-07-24T08:11:43;40.30;;;19.83;;
39880;SDS011;25554;44.954;10.068;2023-07-24T08:14:09;27.00;;;16.67;;
39880;SDS011;25554;44.954;10.068;2023-07-24T08:16:36;32.35;;;19.58;;
39880;SDS011;25554;44.954;10.068;2023-07-24T08:19:02;33.50;;;19.15;;
39880;SDS011;25554;44.954;10.068;2023-07-24T08:21:29;37.47;;;20.42;;
39880;SDS011;25554;44.954;10.068;2023-07-24T08:23:55;30.48;;;17.98;;
39880;SDS011;25554;44.954;10.068;2023-07-24T08:26:22;34.70;;;18.20;;
39880;SDS011;25554;44.954;10.068;2023-07-24T08:28:52;30.00;;;18.88;;
39880;SDS011;25554;44.954;10.068;2023-07-24T08:31:18;26.65;;;19.02;;
39880;SDS011;25554;44.954;10.068;2023-07-24T08:33:45;28.80;;;16.65;;
39880;SDS011;25554;44.954;10.068;2023-07-24T08:36:12;35.85;;;20.23;;
39880;SDS011;25554;44.954;10.068;2023-07-24T08:38:38;34.58;;;20.42;;
39880;SDS011;25554;44.954;10.068;2023-07-24T08:41:07;28.50;;;17.55;;
39880;SDS011;25554;44.954;10.068;2023-07-24T08:43:36;31.02;;;18.27;;
39880;SDS011;25554;44.954;10.068;2023-07-24T08:46:03;23.13;;;15.32;;
39880;SDS011;25554;44.954;10.068;2023-07-24T08:48:39;30.75;;;19.83;;
39880;SDS011;25554;44.954;10.068;2023-07-24T08:51:10;34.42;;;21.50;;
39880;SDS011;25554;44.954;10.068;2023-07-24T08:53:39;29.00;;;20.30;;
39880;SDS011;25554;44.954;10.068;2023-07-24T08:56:07;34.00;;;21.15;;
39880;SDS011;25554;44.954;10.068;2023-07-24T08:58:35;29.23;;;19.50;;
39880;SDS011;25554;44.954;10.068;2023-07-24T09:01:02;25.63;;;17.58;;
39880;SDS011;25554;44.954;10.068;2023-07-24T09:03:33;43.30;;;22.45;;
39880;SDS011;25554;44.954;10.068;2023-07-24T09:05:59;28.83;;;19.70;;
39880;SDS011;25554;44.954;10.068;2023-07-24T09:08:36;32.03;;;18.55;;
39880;SDS011;25554;44.954;10.068;2023-07-24T09:11:04;30.00;;;18.65;;
39880;SDS011;25554;44.954;10.068;2023-07-24T09:13:32;37.40;;;19.55;;
39880;SDS011;25554;44.954;10.068;2023-07-24T09:15:59;39.78;;;20.70;;
39880;SDS011;25554;44.954;10.068;2023-07-24T09:18:25;38.15;;;21.58;;
39880;SDS011;25554;44.954;10.068;2023-07-24T09:20:52;41.08;;;21.23;;
39880;SDS011;25554;44.954;10.068;2023-07-24T09:23:28;30.55;;;20.63;;
39880;SDS011;25554;44.954;10.068;2023-07-24T09:25:55;31.03;;;19.23;;
39880;SDS011;25554;44.954;10.068;2023-07-24T09:28:21;34.90;;;21.08;;
39880;SDS011;25554;44.954;10.068;2023-07-24T09:30:52;27.80;;;17.50;;
39880;SDS011;25554;44.954;10.068;2023-07-24T09:33:18;33.15;;;21.67;;
39880;SDS011;25554;44.954;10.068;2023-07-24T09:35:55;29.98;;;18.67;;
39880;SDS011;25554;44.954;10.068;2023-07-24T09:38:23;37.00;;;23.73;;
39880;SDS011;25554;44.954;10.068;2023-07-24T09:40:49;33.28;;;20.88;;
39880;SDS011;25554;44.954;10.068;2023-07-24T09:43:25;33.47;;;21.02;;
39880;SDS011;25554;44.954;10.068;2023-07-24T09:45:52;33.40;;;19.30;;
39880;SDS011;25554;44.954;10.068;2023-07-24T09:48:19;37.20;;;19.52;;
39880;SDS011;25554;44.954;10.068;2023-07-24T09:50:47;32.17;;;17.95;;
39880;SDS011;25554;44.954;10.068;2023-07-24T09:53:24;28.70;;;18.08;;
39880;SDS011;25554;44.954;10.068;2023-07-24T09:55:58;37.53;;;18.38;;
39880;SDS011;25554;44.954;10.068;2023-07-24T09:58:32;27.88;;;16.95;;
39880;SDS011;25554;44.954;10.068;2023-07-24T10:01:02;32.63;;;16.15;;
39880;SDS011;25554;44.954;10.068;2023-07-24T10:03:47;34.08;;;17.65;;
39880;SDS011;25554;44.954;10.068;2023-07-24T10:06:15;31.92;;;17.67;;
39880;SDS011;25554;44.954;10.068;2023-07-24T10:08:42;43.63;;;19.08;;
39880;SDS011;25554;44.954;10.068;2023-07-24T10:11:13;32.08;;;18.25;;
39880;SDS011;25554;44.954;10.068;2023-07-24T10:13:40;39.45;;;23.73;;
39880;SDS011;25554;44.954;10.068;2023-07-24T10:16:07;38.88;;;24.92;;
39880;SDS011;25554;44.954;10.068;2023-07-24T10:18:34;41.92;;;26.23;;
39880;SDS011;25554;44.954;10.068;2023-07-24T10:21:05;44.20;;;26.65;;
39880;SDS011;25554;44.954;10.068;2023-07-24T10:23:36;42.75;;;25.83;;
39880;SDS011;25554;44.954;10.068;2023-07-24T10:26:03;52.05;;;29.30;;
39880;SDS011;25554;44.954;10.068;2023-07-24T10:28:31;43.70;;;28.90;;
39880;SDS011;25554;44.954;10.068;2023-07-24T10:30:58;46.60;;;29.58;;
39880;SDS011;25554;44.954;10.068;2023-07-24T10:33:25;44.28;;;30.48;;
39880;SDS011;25554;44.954;10.068;2023-07-24T10:36:03;46.63;;;29.83;;
39880;SDS011;25554;44.954;10.068;2023-07-24T10:38:34;41.30;;;26.23;;
39880;SDS011;25554;44.954;10.068;2023-07-24T10:41:02;33.03;;;22.25;;
39880;SDS011;25554;44.954;10.068;2023-07-24T10:43:29;35.88;;;24.42;;
39880;SDS011;25554;44.954;10.068;2023-07-24T10:46:05;37.38;;;27.83;;
39880;SDS011;25554;44.954;10.068;2023-07-24T10:48:32;42.10;;;28.00;;
39880;SDS011;25554;44.954;10.068;2023-07-24T10:50:58;43.85;;;30.30;;
39880;SDS011;25554;44.954;10.068;2023-07-24T10:53:34;42.85;;;29.10;;
39880;SDS011;25554;44.954;10.068;2023-07-24T10:56:02;36.28;;;25.38;;
39880;SDS011;25554;44.954;10.068;2023-07-24T10:58:32;35.78;;;27.45;;
39880;SDS011;25554;44.954;10.068;2023-07-24T11:01:03;39.70;;;28.13;;
39880;SDS011;25554;44.954;10.068;2023-07-24T11:03:30;38.25;;;26.08;;
39880;SDS011;25554;44.954;10.068;2023-07-24T11:05:57;36.83;;;28.10;;
39880;SDS011;25554;44.954;10.068;2023-07-24T11:08:24;36.58;;;27.98;;
39880;SDS011;25554;44.954;10.068;2023-07-24T11:10:51;31.27;;;23.90;;
39880;SDS011;25554;44.954;10.068;2023-07-24T11:13:19;37.05;;;27.13;;
39880;SDS011;25554;44.954;10.068;2023-07-24T11:15:46;37.05;;;26.63;;
39880;SDS011;25554;44.954;10.068;2023-07-24T11:18:12;36.15;;;25.02;;
39880;SDS011;25554;44.954;10.068;2023-07-24T11:20:57;35.42;;;24.15;;
39880;SDS011;25554;44.954;10.068;2023-07-24T11:23:24;33.15;;;25.17;;
39880;SDS011;25554;44.954;10.068;2023-07-24T11:25:51;33.38;;;23.83;;
39880;SDS011;25554;44.954;10.068;2023-07-24T11:28:18;32.60;;;22.70;;
39880;SDS011;25554;44.954;10.068;2023-07-24T11:30:45;34.38;;;22.85;;
39880;SDS011;25554;44.954;10.068;2023-07-24T11:33:12;31.40;;;22.48;;
39880;SDS011;25554;44.954;10.068;2023-07-24T11:35:40;31.65;;;21.33;;
39880;SDS011;25554;44.954;10.068;2023-07-24T11:38:08;23.25;;;18.65;;
39880;SDS011;25554;44.954;10.068;2023-07-24T11:40:39;26.27;;;19.50;;
39880;SDS011;25554;44.954;10.068;2023-07-24T11:43:19;26.45;;;19.98;;
39880;SDS011;25554;44.954;10.068;2023-07-24T11:45:48;24.98;;;19.25;;
39880;SDS011;25554;44.954;10.068;2023-07-24T11:48:18;27.98;;;18.88;;
39880;SDS011;25554;44.954;10.068;2023-07-24T11:50:47;20.23;;;15.23;;
39880;SDS011;25554;44.954;10.068;2023-07-24T11:53:24;20.52;;;13.88;;
39880;SDS011;25554;44.954;10.068;2023-07-24T11:55:54;20.58;;;14.93;;
39880;SDS011;25554;44.954;10.068;2023-07-24T11:58:25;24.80;;;16.33;;
39880;SDS011;25554;44.954;10.068;2023-07-24T12:00:52;22.92;;;17.20;;
39880;SDS011;25554;44.954;10.068;2023-07-24T12:03:24;24.25;;;18.05;;
39880;SDS011;25554;44.954;10.068;2023-07-24T12:05:52;29.17;;;18.75;;
39880;SDS011;25554;44.954;10.068;2023-07-24T12:08:29;24.73;;;17.90;;
39880;SDS011;25554;44.954;10.068;2023-07-24T12:10:57;24.70;;;18.05;;
39880;SDS011;25554;44.954;10.068;2023-07-24T12:13:24;28.08;;;20.83;;
39880;SDS011;25554;44.954;10.068;2023-07-24T12:15:50;26.98;;;17.85;;
39880;SDS011;25554;44.954;10.068;2023-07-24T12:18:17;24.52;;;18.45;;
39880;SDS011;25554;44.954;10.068;2023-07-24T12:20:43;25.13;;;18.77;;
39880;SDS011;25554;44.954;10.068;2023-07-24T12:23:10;28.23;;;20.23;;
39880;SDS011;25554;44.954;10.068;2023-07-24T12:25:36;28.30;;;20.10;;
39880;SDS011;25554;44.954;10.068;2023-07-24T12:28:03;28.13;;;21.05;;
39880;SDS011;25554;44.954;10.068;2023-07-24T12:30:30;30.88;;;23.15;;
39880;SDS011;25554;44.954;10.068;2023-07-24T12:32:56;30.58;;;24.50;;
39880;SDS011;25554;44.954;10.068;2023-07-24T12:35:23;33.28;;;23.63;;
39880;SDS011;25554;44.954;10.068;2023-07-24T12:37:50;32.90;;;22.60;;
39880;SDS011;25554;44.954;10.068;2023-07-24T12:40:16;32.38;;;23.58;;
39880;SDS011;25554;44.954;10.068;2023-07-24T12:42:43;30.33;;;22.25;;
39880;SDS011;25554;44.954;10.068;2023-07-24T12:45:09;24.88;;;19.38;;
39880;SDS011;25554;44.954;10.068;2023-07-24T12:47:36;32.55;;;21.70;;
39880;SDS011;25554;44.954;10.068;2023-07-24T12:50:03;28.35;;;20.30;;
39880;SDS011;25554;44.954;10.068;2023-07-24T12:52:29;32.72;;;19.73;;
39880;SDS011;25554;44.954;10.068;2023-07-24T12:54:56;36.05;;;27.83;;
39880;SDS011;25554;44.954;10.068;2023-07-24T12:57:23;37.70;;;27.55;;
39880;SDS011;25554;44.954;10.068;2023-07-24T12:59:51;36.13;;;27.65;;
39880;SDS011;25554;44.954;10.068;2023-07-24T13:02:18;30.20;;;22.38;;
39880;SDS011;25554;44.954;10.068;2023-07-24T13:04:45;35.28;;;22.40;;
39880;SDS011;25554;44.954;10.068;2023-07-24T13:07:11;26.40;;;18.55;;
39880;SDS011;25554;44.954;10.068;2023-07-24T13:09:38;28.83;;;20.02;;
39880;SDS011;25554;44.954;10.068;2023-07-24T13:12:04;32.83;;;22.83;;
39880;SDS011;25554;44.954;10.068;2023-07-24T13:14:31;29.63;;;20.83;;
39880;SDS011;25554;44.954;10.068;2023-07-24T13:16:58;30.48;;;22.48;;
39880;SDS011;25554;44.954;10.068;2023-07-24T13:19:24;31.20;;;23.10;;
39880;SDS011;25554;44.954;10.068;2023-07-24T13:21:51;29.08;;;20.48;;
39880;SDS011;25554;44.954;10.068;2023-07-24T13:24:17;28.52;;;21.55;;
39880;SDS011;25554;44.954;10.068;2023-07-24T13:26:44;29.65;;;18.52;;
39880;SDS011;25554;44.954;10.068;2023-07-24T13:29:10;27.05;;;19.30;;
39880;SDS011;25554;44.954;10.068;2023-07-24T13:31:37;23.50;;;16.75;;
39880;SDS011;25554;44.954;10.068;2023-07-24T13:34:06;20.38;;;15.73;;
39880;SDS011;25554;44.954;10.068;2023-07-24T13:36:33;20.60;;;14.70;;
39880;SDS011;25554;44.954;10.068;2023-07-24T13:39:00;30.50;;;15.52;;
39880;SDS011;25554;44.954;10.068;2023-07-24T13:41:26;24.70;;;16.20;;
39880;SDS011;25554;44.954;10.068;2023-07-24T13:43:53;25.67;;;16.52;;
39880;SDS011;25554;44.954;10.068;2023-07-24T13:46:20;21.83;;;15.35;;
39880;SDS011;25554;44.954;10.068;2023-07-24T13:48:46;21.02;;;12.95;;
39880;SDS011;25554;44.954;10.068;2023-07-24T13:51:13;18.33;;;13.40;;
39880;SDS011;25554;44.954;10.068;2023-07-24T13:53:39;22.27;;;13.38;;
39880;SDS011;25554;44.954;10.068;2023-07-24T13:56:06;18.13;;;12.48;;
39880;SDS011;25554;44.954;10.068;2023-07-24T13:58:32;20.65;;;12.77;;
39880;SDS011;25554;44.954;10.068;2023-07-24T14:00:59;21.27;;;12.75;;
39880;SDS011;25554;44.954;10.068;2023-07-24T14:03:25;17.00;;;12.68;;
39880;SDS011;25554;44.954;10.068;2023-07-24T14:05:54;18.40;;;12.02;;
39880;SDS011;25554;44.954;10.068;2023-07-24T14:08:21;20.80;;;11.82;;
39880;SDS011;25554;44.954;10.068;2023-07-24T14:10:48;19.25;;;11.80;;
39880;SDS011;25554;44.954;10.068;2023-07-24T14:13:15;17.92;;;12.10;;
39880;SDS011;25554;44.954;10.068;2023-07-24T14:15:41;16.65;;;11.75;;
39880;SDS011;25554;44.954;10.068;2023-07-24T14:18:08;17.88;;;12.80;;
39880;SDS011;25554;44.954;10.068;2023-07-24T14:20:34;17.98;;;11.90;;
39880;SDS011;25554;44.954;10.068;2023-07-24T14:23:02;17.63;;;12.65;;
39880;SDS011;25554;44.954;10.068;2023-07-24T14:25:29;16.65;;;10.75;;
39880;SDS011;25554;44.954;10.068;2023-07-24T14:27:55;18.98;;;12.02;;
39880;SDS011;25554;44.954;10.068;2023-07-24T14:30:22;16.17;;;11.13;;
39880;SDS011;25554;44.954;10.068;2023-07-24T14:32:48;19.65;;;11.20;;
39880;SDS011;25554;44.954;10.068;2023-07-24T14:35:16;21.15;;;12.70;;
39880;SDS011;25554;44.954;10.068;2023-07-24T14:37:42;18.20;;;10.48;;
39880;SDS011;25554;44.954;10.068;2023-07-24T14:40:09;20.65;;;11.15;;
39880;SDS011;25554;44.954;10.068;2023-07-24T14:42:37;16.27;;;10.73;;
39880;SDS011;25554;44.954;10.068;2023-07-24T14:45:04;22.48;;;12.52;;
39880;SDS011;25554;44.954;10.068;2023-07-24T14:47:30;19.33;;;11.77;;
39880;SDS011;25554;44.954;10.068;2023-07-24T14:49:57;20.77;;;12.32;;
39880;SDS011;25554;44.954;10.068;2023-07-24T14:52:24;21.05;;;11.52;;
39880;SDS011;25554;44.954;10.068;2023-07-24T14:54:51;22.27;;;10.65;;
39880;SDS011;25554;44.954;10.068;2023-07-24T14:57:17;21.38;;;12.10;;
39880;SDS011;25554;44.954;10.068;2023-07-24T14:59:44;16.90;;;10.68;;
39880;SDS011;25554;44.954;10.068;2023-07-24T15:02:11;16.35;;;11.02;;
39880;SDS011;25554;44.954;10.068;2023-07-24T15:04:37;17.70;;;11.40;;
39880;SDS011;25554;44.954;10.068;2023-07-24T15:07:04;20.20;;;11.32;;
39880;SDS011;25554;44.954;10.068;2023-07-24T15:09:31;21.35;;;11.70;;
39880;SDS011;25554;44.954;10.068;2023-07-24T15:11:57;25.48;;;11.68;;
39880;SDS011;25554;44.954;10.068;2023-07-24T15:14:24;15.77;;;10.60;;
39880;SDS011;25554;44.954;10.068;2023-07-24T15:16:51;26.17;;;11.13;;
39880;SDS011;25554;44.954;10.068;2023-07-24T15:19:17;16.55;;;11.48;;
39880;SDS011;25554;44.954;10.068;2023-07-24T15:21:44;23.45;;;11.80;;
39880;SDS011;25554;44.954;10.068;2023-07-24T15:24:11;19.25;;;10.65;;
39880;SDS011;25554;44.954;10.068;2023-07-24T15:26:38;21.33;;;10.77;;
39880;SDS011;25554;44.954;10.068;2023-07-24T15:29:04;16.92;;;10.65;;
39880;SDS011;25554;44.954;10.068;2023-07-24T15:31:31;17.75;;;9.88;;
39880;SDS011;25554;44.954;10.068;2023-07-24T15:34:02;17.88;;;10.13;;
39880;SDS011;25554;44.954;10.068;2023-07-24T15:36:30;20.20;;;10.55;;
39880;SDS011;25554;44.954;10.068;2023-07-24T15:38:57;16.80;;;10.40;;
39880;SDS011;25554;44.954;10.068;2023-07-24T15:41:23;19.23;;;9.85;;
39880;SDS011;25554;44.954;10.068;2023-07-24T15:43:50;19.17;;;10.48;;
39880;SDS011;25554;44.954;10.068;2023-07-24T15:46:16;18.73;;;10.15;;
39880;SDS011;25554;44.954;10.068;2023-07-24T15:48:43;18.23;;;9.88;;
39880;SDS011;25554;44.954;10.068;2023-07-24T15:51:10;22.25;;;10.65;;
39880;SDS011;25554;44.954;10.068;2023-07-24T15:53:36;16.15;;;9.90;;
39880;SDS011;25554;44.954;10.068;2023-07-24T15:56:03;19.50;;;10.23;;
39880;SDS011;25554;44.954;10.068;2023-07-24T15:58:31;14.52;;;9.43;;
39880;SDS011;25554;44.954;10.068;2023-07-24T16:01:00;18.20;;;10.70;;
39880;SDS011;25554;44.954;10.068;2023-07-24T16:03:26;21.40;;;9.60;;
39880;SDS011;25554;44.954;10.068;2023-07-24T16:05:56;16.52;;;9.82;;
39880;SDS011;25554;44.954;10.068;2023-07-24T16:08:22;14.82;;;9.25;;